Wampum, Pennsylvania
Current Conditions -  °F | °C
As of 7:15 PM on Thursday 27 Nov 2014 (Local Time) from KBTP Reporting Station
Broken Clouds Broken Clouds  
Wind Chill: 20°   Ceiling: 3300
Heat Index: 28°   Visibility: 10mi
Dew Point: 21°   Wind: 8mph
Humidity: 74%   Direction: 240°WSW
Pressure: 30.17"   Gusts: NA
Location:  40.89°N, 80.34°W
Report Text: KBTP 280015Z AUTO 24007KT 10SM SCT025 BKN033 BKN120 M02/M06 A3017 RMK AO1
Loading
Personal Weather Stations






























Interactive Weather Map New forecast layout! Learn more

10-Day Weather Forecast

Advertisements
Track Severe Weather on mobile